createdAt,value
2022-12-01T00:01:19.197Z,4.34
2022-12-01T00:03:47.199Z,4.24
2022-12-01T00:06:17.099Z,4.26
2022-12-01T00:09:06.469Z,4.25
2022-12-01T00:11:34.333Z,4.28
2022-12-01T00:14:02.529Z,4.29
2022-12-01T00:16:32.569Z,4.32
2022-12-01T00:19:00.910Z,4.27
2022-12-01T00:21:29.618Z,4.24
2022-12-01T00:23:59.446Z,4.28
2022-12-01T00:26:28.626Z,4.27
2022-12-01T00:28:57.823Z,4.17
2022-12-01T00:31:26.645Z,4.22
2022-12-01T00:33:56.357Z,4.24
2022-12-01T00:36:25.077Z,4.21
2022-12-01T00:38:54.403Z,4.16
2022-12-01T00:41:23.144Z,4.14
2022-12-01T00:43:51.276Z,4.14
2022-12-01T00:46:19.474Z,4.15
2022-12-01T00:48:47.541Z,4.15
2022-12-01T00:51:16.838Z,4.11
2022-12-01T00:53:44.823Z,3.94
2022-12-01T00:56:12.756Z,4.10
2022-12-01T00:58:40.696Z,4.13
2022-12-01T01:01:08.999Z,4.13
2022-12-01T01:03:37.146Z,4.11
2022-12-01T01:06:06.888Z,4.11
2022-12-01T01:08:36.636Z,4.01
2022-12-01T01:11:05.862Z,4.07
2022-12-01T01:13:34.666Z,4.08
2022-12-01T01:16:05.307Z,4.05
2022-12-01T01:18:34.047Z,3.97
2022-12-01T01:21:03.458Z,4.02
2022-12-01T01:23:31.434Z,3.97
2022-12-01T01:26:04.895Z,4.02
2022-12-01T01:28:33.272Z,4.05
2022-12-01T01:31:05.507Z,4.05
2022-12-01T01:33:33.687Z,4.02
2022-12-01T01:36:02.186Z,4.00
2022-12-01T01:38:31.032Z,4.01
2022-12-01T01:40:59.182Z,3.97
2022-12-01T01:43:44.602Z,3.97
2022-12-01T01:46:14.422Z,4.00
2022-12-01T01:48:44.784Z,3.99
2022-12-01T01:51:13.903Z,3.93
2022-12-01T01:53:42.873Z,3.98
2022-12-01T01:56:11.247Z,4.00
2022-12-01T01:58:42.263Z,4.04
2022-12-01T02:01:10.317Z,4.06
2022-12-01T02:03:40.902Z,4.01
2022-12-01T02:06:10.499Z,3.97
2022-12-01T02:08:38.866Z,3.98
2022-12-01T02:11:48.514Z,3.94
2022-12-01T02:14:56.638Z,3.97
2022-12-01T02:17:33.585Z,4.01
2022-12-01T02:20:24.463Z,3.90
2022-12-01T02:23:14.092Z,4.01
2022-12-01T02:25:50.181Z,4.01
2022-12-01T02:28:35.741Z,3.94
2022-12-01T02:31:09.287Z,3.93
2022-12-01T02:33:43.174Z,4.02
2022-12-01T02:36:16.727Z,3.96
2022-12-01T02:38:53.827Z,3.97
2022-12-01T02:41:27.404Z,3.98
2022-12-01T02:44:02.964Z,3.95
2022-12-01T02:46:35.240Z,4.00
2022-12-01T02:49:08.570Z,3.97
2022-12-01T02:51:39.124Z,3.97
2022-12-01T02:54:07.526Z,3.93
2022-12-01T02:56:35.581Z,3.85
2022-12-01T02:59:03.531Z,3.94
2022-12-01T03:01:50.748Z,3.91
2022-12-01T03:04:38.937Z,3.96
2022-12-01T03:07:15.590Z,3.90
2022-12-01T03:09:53.903Z,3.89
2022-12-01T03:12:29.925Z,3.93
2022-12-01T03:15:05.288Z,3.94
2022-12-01T03:17:39.902Z,3.85
2022-12-01T03:20:13.944Z,3.90
2022-12-01T03:22:45.649Z,3.93
2022-12-01T03:25:16.485Z,3.92
2022-12-01T03:28:06.697Z,3.80
2022-12-01T03:30:37.860Z,3.90
2022-12-01T03:33:11.846Z,3.92
2022-12-01T03:35:43.763Z,3.90
2022-12-01T03:38:15.644Z,3.81
2022-12-01T03:40:45.972Z,3.80
2022-12-01T03:43:20.639Z,3.82
2022-12-01T03:45:56.378Z,3.75
2022-12-01T03:48:26.690Z,3.65
2022-12-01T03:51:02.193Z,3.61
2022-12-01T03:53:39.029Z,3.65
2022-12-01T03:56:08.988Z,3.50
2022-12-01T03:58:41.221Z,3.54
2022-12-01T04:01:09.950Z,3.46
2022-12-01T04:03:39.365Z,3.55
2022-12-01T04:06:07.936Z,3.50
2022-12-01T04:08:37.443Z,3.42
2022-12-01T04:11:32.220Z,3.40
2022-12-01T04:13:59.553Z,3.49
2022-12-01T04:16:27.604Z,3.55
2022-12-01T04:18:57.150Z,3.48
2022-12-01T04:21:25.054Z,3.48
2022-12-01T04:24:01.732Z,3.40
2022-12-01T04:26:30.748Z,3.30
2022-12-01T04:28:59.446Z,3.34
2022-12-01T04:31:27.755Z,3.29
2022-12-01T04:33:57.745Z,3.24
2022-12-01T04:36:26.114Z,3.20
2022-12-01T04:38:54.002Z,3.14
2022-12-01T04:41:22.010Z,3.19
2022-12-01T04:43:49.935Z,3.22
2022-12-01T04:46:17.881Z,3.15
2022-12-01T04:48:46.209Z,3.14
2022-12-01T04:51:15.700Z,3.04
2022-12-01T04:53:43.681Z,3.07
2022-12-01T04:56:11.801Z,3.01
2022-12-01T04:58:39.789Z,3.03
2022-12-01T05:01:10.393Z,3.07
2022-12-01T05:03:39.131Z,3.04
2022-12-01T05:06:11.588Z,3.08
2022-12-01T05:08:41.491Z,3.07
2022-12-01T05:11:12.205Z,3.08
2022-12-01T05:13:41.117Z,3.06
2022-12-01T05:16:11.366Z,3.00
2022-12-01T05:18:39.583Z,3.07
2022-12-01T05:21:09.250Z,2.95
2022-12-01T05:23:38.590Z,2.97
2022-12-01T05:26:09.285Z,2.99
2022-12-01T05:28:37.262Z,2.90
2022-12-01T05:31:05.768Z,2.97
2022-12-01T05:33:33.682Z,3.03
2022-12-01T05:36:01.810Z,2.99
2022-12-01T05:38:29.821Z,2.94
2022-12-01T05:40:57.713Z,2.97
2022-12-01T05:43:29.320Z,3.03
2022-12-01T05:46:00.821Z,2.95
2022-12-01T05:48:28.820Z,2.90
2022-12-01T05:50:56.941Z,2.91
2022-12-01T05:53:24.938Z,2.71
2022-12-01T05:55:54.292Z,2.64
2022-12-01T05:58:22.310Z,2.66
2022-12-01T06:00:51.770Z,2.62
2022-12-01T06:03:22.551Z,2.67
2022-12-01T06:05:50.905Z,2.72
2022-12-01T06:08:18.890Z,2.64
2022-12-01T06:10:47.223Z,2.63
2022-12-01T06:13:15.160Z,2.64
2022-12-01T06:15:43.285Z,2.59
2022-12-01T06:18:12.739Z,2.57
2022-12-01T06:20:40.678Z,2.57
2022-12-01T06:23:08.595Z,2.50
2022-12-01T06:25:36.480Z,2.34
2022-12-01T06:28:04.676Z,2.49
2022-12-01T06:30:32.631Z,2.50
2022-12-01T06:33:00.519Z,2.42
2022-12-01T06:35:29.871Z,2.44
2022-12-01T06:37:57.810Z,2.47
2022-12-01T06:40:25.795Z,2.40
2022-12-01T06:42:53.882Z,2.30
2022-12-01T06:45:21.903Z,2.39
2022-12-01T06:47:53.907Z,2.31
2022-12-01T06:50:21.923Z,2.46
2022-12-01T06:52:52.670Z,2.49
2022-12-01T06:55:20.809Z,2.43
2022-12-01T06:57:48.965Z,2.34
2022-12-01T07:00:18.226Z,2.39
2022-12-01T07:02:47.216Z,2.29
2022-12-01T07:05:15.301Z,2.35
2022-12-01T07:07:43.276Z,2.41
2022-12-01T07:10:13.713Z,2.37
2022-12-01T07:12:41.862Z,2.46
2022-12-01T07:15:10.504Z,2.22
2022-12-01T07:17:38.484Z,2.32
2022-12-01T07:20:07.656Z,2.34
2022-12-01T07:22:36.095Z,2.32
2022-12-01T07:25:04.258Z,2.36
2022-12-01T07:27:33.548Z,2.35
2022-12-01T07:30:02.242Z,2.35
2022-12-01T07:32:30.226Z,2.42
2022-12-01T07:34:58.194Z,2.52
2022-12-01T07:37:26.265Z,2.54
2022-12-01T07:39:54.177Z,2.46
2022-12-01T07:42:22.108Z,2.46
2022-12-01T07:44:51.333Z,2.44
2022-12-01T07:47:19.871Z,2.42
2022-12-01T07:49:48.236Z,2.31
2022-12-01T07:52:16.460Z,2.37
2022-12-01T07:54:44.350Z,2.35
2022-12-01T07:57:14.247Z,2.38
2022-12-01T07:59:42.283Z,2.45
2022-12-01T08:02:12.246Z,2.50
2022-12-01T08:04:40.473Z,2.59
2022-12-01T08:07:08.544Z,2.25
2022-12-01T08:09:37.196Z,2.58
2022-12-01T08:12:05.561Z,2.56
2022-12-01T08:14:36.091Z,2.44
2022-12-01T08:17:04.089Z,2.55
2022-12-01T08:19:33.736Z,2.64
2022-12-01T08:22:01.804Z,2.66
2022-12-01T08:24:30.876Z,2.66
2022-12-01T08:26:58.803Z,2.60
2022-12-01T08:29:30.775Z,2.71
2022-12-01T08:31:58.868Z,2.67
2022-12-01T08:34:26.859Z,2.73
2022-12-01T08:36:56.113Z,2.77
2022-12-01T08:39:24.075Z,2.77
2022-12-01T08:41:52.008Z,2.77
2022-12-01T08:44:20.024Z,2.76
2022-12-01T08:46:48.024Z,2.80
2022-12-01T08:49:16.158Z,2.85
2022-12-01T08:51:44.131Z,2.87
2022-12-01T08:54:13.539Z,2.73
2022-12-01T08:56:43.351Z,2.73
2022-12-01T08:59:11.398Z,2.72
2022-12-01T09:01:51.816Z,2.78
2022-12-01T09:04:21.192Z,2.70
2022-12-01T09:06:50.583Z,2.74
2022-12-01T09:09:21.536Z,2.72
2022-12-01T09:11:52.132Z,2.60
2022-12-01T09:14:21.338Z,2.67
2022-12-01T09:16:51.019Z,2.58
2022-12-01T09:19:24.761Z,2.48
2022-12-01T09:21:54.114Z,2.56
2022-12-01T09:24:24.151Z,2.46
2022-12-01T09:26:56.226Z,2.38
2022-12-01T09:29:24.288Z,2.26
2022-12-01T09:31:52.636Z,2.42
2022-12-01T09:34:21.294Z,2.31
2022-12-01T09:36:49.430Z,2.29
2022-12-01T09:39:19.833Z,2.26
2022-12-01T09:41:52.998Z,2.27
2022-12-01T09:44:32.949Z,2.32
2022-12-01T09:47:08.823Z,2.26
2022-12-01T09:49:46.881Z,2.46
2022-12-01T09:52:17.978Z,2.45
2022-12-01T09:54:46.927Z,2.43
2022-12-01T09:57:25.567Z,2.37
2022-12-01T09:59:54.508Z,2.36
2022-12-01T10:02:29.491Z,2.42
2022-12-01T10:05:00.658Z,2.45
2022-12-01T10:07:31.724Z,2.54
2022-12-01T10:10:02.216Z,2.69
2022-12-01T10:12:35.813Z,2.77
2022-12-01T10:15:16.502Z,2.59
2022-12-01T10:17:58.241Z,2.72
2022-12-01T10:20:32.456Z,2.86
2022-12-01T10:23:30.935Z,2.81
2022-12-01T10:26:01.677Z,2.85
2022-12-01T10:28:54.076Z,2.93
2022-12-01T10:31:32.786Z,2.87
2022-12-01T10:34:03.237Z,2.85
2022-12-01T10:36:33.889Z,2.83
2022-12-01T10:39:02.571Z,2.69
2022-12-01T10:41:34.799Z,2.64
2022-12-01T10:44:06.868Z,2.74
2022-12-01T10:46:41.863Z,2.78
2022-12-01T10:49:12.290Z,2.72
2022-12-01T10:51:53.388Z,2.55
2022-12-01T10:54:22.885Z,2.44
2022-12-01T10:56:56.846Z,2.62
2022-12-01T10:59:32.075Z,2.83
2022-12-01T11:02:02.547Z,2.69
2022-12-01T11:04:46.043Z,2.71
2022-12-01T11:07:20.400Z,2.61
2022-12-01T11:10:00.994Z,2.80
2022-12-01T11:12:29.698Z,2.77
2022-12-01T11:14:59.486Z,2.83
2022-12-01T11:17:31.586Z,2.83
2022-12-01T11:20:00.302Z,2.81
2022-12-01T11:22:30.897Z,2.86
2022-12-01T11:25:01.779Z,3.02
2022-12-01T11:27:34.352Z,2.99
2022-12-01T11:30:07.039Z,2.80
2022-12-01T11:32:38.294Z,2.95
2022-12-01T11:35:16.590Z,2.97
2022-12-01T11:38:13.372Z,2.83
2022-12-01T11:40:46.968Z,3.00
2022-12-01T11:43:26.293Z,3.08
2022-12-01T11:45:58.681Z,3.17
2022-12-01T11:48:29.396Z,3.21
2022-12-01T11:51:04.355Z,3.19
2022-12-01T11:53:34.588Z,3.06
2022-12-01T11:56:18.042Z,3.06
2022-12-01T11:58:48.770Z,3.02
2022-12-01T12:01:29.351Z,3.08
2022-12-01T12:04:07.644Z,3.18
2022-12-01T12:06:43.213Z,3.24
2022-12-01T12:09:40.141Z,3.14
2022-12-01T12:12:23.156Z,3.24
2022-12-01T12:15:01.650Z,3.34
2022-12-01T12:17:49.421Z,3.33
2022-12-01T12:20:32.399Z,3.27
2022-12-01T12:23:16.833Z,3.20
2022-12-01T12:25:55.057Z,3.37
2022-12-01T12:28:38.733Z,3.35
2022-12-01T12:31:15.707Z,3.46
2022-12-01T12:34:23.643Z,3.41
2022-12-01T12:37:06.917Z,3.25
2022-12-01T12:39:51.357Z,3.33
2022-12-01T12:42:29.384Z,3.31
2022-12-01T12:45:06.170Z,3.32
2022-12-01T12:47:52.082Z,3.29
2022-12-01T12:50:28.322Z,3.17
2022-12-01T12:53:00.531Z,3.43
2022-12-01T12:55:34.024Z,3.47
2022-12-01T12:58:11.082Z,3.51
2022-12-01T13:00:45.399Z,3.53
2022-12-01T13:03:18.709Z,3.53
2022-12-01T13:05:51.573Z,3.55
2022-12-01T13:08:24.355Z,3.55
2022-12-01T13:10:58.980Z,3.56
2022-12-01T13:13:32.320Z,3.46
2022-12-01T13:16:03.484Z,3.44
2022-12-01T13:18:40.285Z,3.40
2022-12-01T13:21:17.207Z,3.43
2022-12-01T13:23:46.914Z,3.37
2022-12-01T13:26:18.200Z,3.37
2022-12-01T13:28:50.532Z,3.28
2022-12-01T13:31:20.985Z,3.28
2022-12-01T13:33:56.774Z,3.18
2022-12-01T13:39:19.991Z,3.16
2022-12-01T13:41:58.935Z,3.07
2022-12-01T13:44:29.563Z,3.13
2022-12-01T13:47:00.234Z,3.04
2022-12-01T13:49:41.976Z,3.19
2022-12-01T13:52:33.834Z,3.23
2022-12-01T13:55:24.165Z,3.17
2022-12-01T13:58:26.278Z,3.12
2022-12-01T14:01:15.013Z,3.09
2022-12-01T14:03:53.868Z,3.09
2022-12-01T14:06:27.999Z,3.06
2022-12-01T14:09:00.798Z,3.04
2022-12-01T14:11:32.037Z,3.11
2022-12-01T14:14:03.730Z,3.07
2022-12-01T14:16:48.154Z,3.00
2022-12-01T14:19:29.425Z,3.00
2022-12-01T14:21:58.517Z,3.03
2022-12-01T14:24:31.219Z,3.04
2022-12-01T14:27:00.862Z,3.11
2022-12-01T14:29:32.107Z,3.11
2022-12-01T14:32:22.378Z,3.12
2022-12-01T14:35:01.538Z,3.06
2022-12-01T14:37:38.288Z,2.95
2022-12-01T14:40:13.716Z,2.95
2022-12-01T14:43:04.039Z,2.86
2022-12-01T14:45:39.279Z,2.83
2022-12-01T14:48:13.531Z,2.84
2022-12-01T14:50:46.957Z,2.75
2022-12-01T14:53:22.252Z,2.79
2022-12-01T14:55:56.157Z,2.75
2022-12-01T14:58:29.256Z,2.70
2022-12-01T15:01:07.159Z,2.58
2022-12-01T15:03:42.464Z,2.60
2022-12-01T15:06:17.032Z,2.60
2022-12-01T15:08:58.422Z,2.70
2022-12-01T15:11:33.212Z,2.73
2022-12-01T15:14:02.669Z,2.60
2022-12-01T15:16:31.994Z,2.64
2022-12-01T15:19:00.174Z,2.61
2022-12-01T15:21:30.963Z,2.59
2022-12-01T15:24:02.134Z,2.61
2022-12-01T15:26:32.786Z,2.63
2022-12-01T15:29:16.980Z,2.66
2022-12-01T15:31:47.644Z,2.69
2022-12-01T15:34:18.306Z,2.59
2022-12-01T15:36:47.226Z,2.72
2022-12-01T15:39:17.769Z,2.63
2022-12-01T15:41:48.259Z,2.62
2022-12-01T15:44:26.734Z,2.52
2022-12-01T15:46:55.325Z,2.41
2022-12-01T15:49:29.552Z,2.42
2022-12-01T15:52:07.367Z,2.57
2022-12-01T15:54:37.742Z,2.53
2022-12-01T15:57:07.040Z,2.37
2022-12-01T15:59:40.282Z,2.54
2022-12-01T16:02:23.458Z,2.62
2022-12-01T16:05:02.204Z,2.55
2022-12-01T16:08:04.891Z,2.68
2022-12-01T16:10:31.333Z,2.57
2022-12-01T16:13:38.830Z,2.57
2022-12-01T16:16:40.828Z,2.51
2022-12-01T16:19:28.174Z,2.50
2022-12-01T16:22:00.971Z,2.54
2022-12-01T16:24:32.564Z,2.53
2022-12-01T16:27:03.559Z,2.58
2022-12-01T16:29:34.990Z,2.70
2022-12-01T16:32:21.095Z,2.60
2022-12-01T16:34:51.037Z,2.66
2022-12-01T16:37:19.262Z,2.64
2022-12-01T16:39:47.245Z,2.61
2022-12-01T16:42:17.495Z,2.64
2022-12-01T16:44:46.610Z,2.48
2022-12-01T16:47:20.369Z,2.48
2022-12-01T16:49:48.903Z,2.52
2022-12-01T16:55:06.060Z,2.55
2022-12-01T16:57:34.020Z,2.53
2022-12-01T17:00:02.256Z,2.57
2022-12-01T17:02:31.749Z,2.52
2022-12-01T17:04:59.983Z,2.46
2022-12-01T17:07:28.050Z,2.51
2022-12-01T17:09:56.162Z,2.36
2022-12-01T17:12:26.332Z,2.44
2022-12-01T17:14:54.373Z,2.53
2022-12-01T17:17:22.295Z,2.49
2022-12-01T17:19:53.888Z,2.49
2022-12-01T17:22:21.978Z,2.39
2022-12-01T17:24:50.783Z,2.35
2022-12-01T17:27:19.148Z,2.44
2022-12-01T17:29:47.212Z,2.40
2022-12-01T17:32:15.723Z,2.33
2022-12-01T17:34:43.714Z,2.32
2022-12-01T17:37:19.058Z,2.35
2022-12-01T17:39:49.117Z,2.41
2022-12-01T17:42:17.434Z,2.39
2022-12-01T17:44:45.653Z,2.41
2022-12-01T17:47:13.925Z,2.41
2022-12-01T17:49:42.002Z,2.37
2022-12-01T17:52:09.992Z,2.38
2022-12-01T17:54:39.460Z,2.42
2022-12-01T17:57:08.379Z,2.33
2022-12-01T17:59:37.709Z,2.39
2022-12-01T18:02:06.094Z,2.31
2022-12-01T18:04:35.794Z,2.31
2022-12-01T18:07:03.854Z,2.33
2022-12-01T18:09:32.085Z,2.31
2022-12-01T18:12:02.013Z,2.41
2022-12-01T18:14:32.691Z,2.35
2022-12-01T18:17:00.706Z,2.28
2022-12-01T18:19:28.666Z,2.37
2022-12-01T18:21:56.949Z,2.37
2022-12-01T18:24:26.465Z,2.35
2022-12-01T18:26:55.857Z,2.37
2022-12-01T18:29:28.546Z,2.30
2022-12-01T18:31:57.172Z,2.37
2022-12-01T18:34:25.991Z,2.37
2022-12-01T18:36:54.079Z,2.44
2022-12-01T18:39:22.278Z,2.48
2022-12-01T18:41:50.542Z,2.45
2022-12-01T18:44:18.712Z,2.50
2022-12-01T18:46:48.231Z,2.49
2022-12-01T18:49:16.675Z,2.49
2022-12-01T18:51:44.780Z,2.42
2022-12-01T18:54:14.967Z,2.44
2022-12-01T18:56:43.370Z,2.41
2022-12-01T18:59:12.901Z,2.35
2022-12-01T19:01:44.162Z,2.33
2022-12-01T19:04:15.726Z,2.35
2022-12-01T19:06:45.538Z,2.26
2022-12-01T19:09:15.361Z,2.38
2022-12-01T19:11:44.296Z,2.29
2022-12-01T19:14:16.674Z,2.31
2022-12-01T19:16:46.069Z,2.19
2022-12-01T19:19:15.704Z,2.33
2022-12-01T19:21:45.151Z,2.35
2022-12-01T19:24:13.926Z,2.36
2022-12-01T19:26:42.073Z,2.39
2022-12-01T19:29:10.115Z,2.27
2022-12-01T19:31:38.398Z,2.33
2022-12-01T19:34:07.441Z,2.31
2022-12-01T19:36:36.940Z,2.36
2022-12-01T19:39:07.658Z,2.34
2022-12-01T19:41:38.553Z,2.38
2022-12-01T19:44:06.875Z,2.44
2022-12-01T19:46:35.515Z,2.37
2022-12-01T19:49:04.965Z,2.44
2022-12-01T19:51:35.145Z,2.37
2022-12-01T19:54:05.790Z,2.48
2022-12-01T19:56:34.462Z,2.44
2022-12-01T19:59:02.894Z,2.41
2022-12-01T20:01:31.458Z,2.42
2022-12-01T20:03:59.787Z,2.45
2022-12-01T20:06:29.680Z,2.43
2022-12-01T20:08:59.184Z,2.41
2022-12-01T20:11:29.742Z,2.42
2022-12-01T20:13:57.940Z,2.45
2022-12-01T20:16:28.376Z,2.41
2022-12-01T20:18:56.501Z,2.46
2022-12-01T20:21:26.392Z,2.39
2022-12-01T20:23:58.239Z,2.37
2022-12-01T20:26:31.059Z,2.40
2022-12-01T20:29:01.625Z,2.36
2022-12-01T20:31:31.950Z,2.35
2022-12-01T20:34:02.679Z,2.36
2022-12-01T20:36:32.101Z,2.27
2022-12-01T20:39:00.298Z,2.20
2022-12-01T20:41:29.831Z,2.28
2022-12-01T20:44:02.359Z,2.29
2022-12-01T20:46:34.231Z,2.28
2022-12-01T20:49:02.506Z,2.21
2022-12-01T20:51:33.173Z,2.28
2022-12-01T20:54:26.748Z,2.20
2022-12-01T20:56:51.075Z,2.21
2022-12-01T20:59:19.200Z,2.27
2022-12-01T21:01:47.374Z,2.27
2022-12-01T21:04:15.388Z,2.19
2022-12-01T21:06:43.616Z,2.19
2022-12-01T21:09:12.976Z,2.21
2022-12-01T21:12:04.581Z,2.23
2022-12-01T21:14:38.313Z,2.21
2022-12-01T21:17:19.344Z,2.17
2022-12-01T21:19:56.390Z,2.11
2022-12-01T21:22:25.856Z,2.20
2022-12-01T21:25:02.678Z,2.17
2022-12-01T21:27:37.224Z,2.09
2022-12-01T21:30:18.971Z,2.03
2022-12-01T21:32:47.933Z,2.08
2022-12-01T21:35:19.859Z,2.11
2022-12-01T21:37:49.246Z,2.15
2022-12-01T21:40:20.749Z,2.12
2022-12-01T21:42:49.345Z,2.17
2022-12-01T21:45:23.511Z,2.11
2022-12-01T21:47:51.595Z,2.03
2022-12-01T21:50:23.745Z,2.08
2022-12-01T21:52:52.103Z,2.07
2022-12-01T21:55:37.150Z,2.10
2022-12-01T21:58:24.400Z,2.12
2022-12-01T22:01:00.598Z,2.14
2022-12-01T22:03:34.398Z,2.13
2022-12-01T22:08:54.607Z,2.13
2022-12-01T22:11:24.165Z,2.07
2022-12-01T22:13:55.958Z,2.01
2022-12-01T22:16:31.040Z,1.92
2022-12-01T22:19:01.257Z,1.91
2022-12-01T22:21:33.968Z,1.98
2022-12-01T22:24:23.819Z,2.03
2022-12-01T22:26:58.197Z,1.93
2022-12-01T22:29:34.822Z,1.99
2022-12-01T22:32:41.257Z,1.96
2022-12-01T22:35:27.320Z,1.99
2022-12-01T22:37:59.257Z,2.05
2022-12-01T22:40:34.928Z,1.97
2022-12-01T22:43:28.424Z,1.88
2022-12-01T22:46:16.521Z,1.92
2022-12-01T22:48:46.440Z,1.88
2022-12-01T22:51:28.685Z,1.89
2022-12-01T22:54:01.275Z,1.85
2022-12-01T22:56:34.630Z,1.86
2022-12-01T22:59:11.452Z,1.84
2022-12-01T23:01:44.183Z,1.90
2022-12-01T23:04:34.372Z,1.95
2022-12-01T23:07:11.153Z,1.91
2022-12-01T23:09:41.886Z,1.86
2022-12-01T23:12:26.272Z,1.80
2022-12-01T23:14:59.055Z,1.88
2022-12-01T23:17:29.653Z,1.77
2022-12-01T23:20:26.048Z,1.78
2022-12-01T23:22:56.030Z,1.73
2022-12-01T23:25:25.147Z,1.81
2022-12-01T23:27:54.981Z,1.77
2022-12-01T23:30:23.990Z,1.72
2022-12-01T23:33:00.342Z,1.77
2022-12-01T23:35:28.377Z,1.76
2022-12-01T23:37:57.764Z,1.75
2022-12-01T23:40:30.937Z,1.77
2022-12-01T23:42:59.931Z,1.69
2022-12-01T23:45:28.772Z,1.66
2022-12-01T23:47:57.639Z,1.54
2022-12-01T23:50:28.429Z,1.65
2022-12-01T23:52:58.087Z,1.64
2022-12-01T23:55:29.472Z,1.66
2022-12-01T23:57:59.237Z,1.68
